Brodhead, Kentucky
Current Conditions -  °F | °C
As of 9:15 AM on Tuesday 27 Jan 2015 (Local Time) from KI39 Reporting Station
Overcast Overcast  
Wind Chill: 20°   Ceiling: 800
Heat Index: 27°   Visibility: 7mi
Dew Point: 25°   Wind: 6mph
Humidity: 93%   Direction: 20°NNE
Pressure: 29.99"   Gusts: NA
Location:  37.4°N, 84.41°W
Report Text: KI39 271415Z AUTO 02005KT 7SM BKN008 BKN022 OVC031 M03/M04 A2999 RMK AO2
Loading
Personal Weather Stations






























Interactive Weather Map New forecast layout! Learn more

10-Day Weather Forecast

Advertisements
Track Severe Weather on mobile